Latest Coastal Weather Observations for Aireys Inlet

IDV60701

Issued at 9:01 pm EDT Saturday 31 January 2015 (issued every 10 minutes, with the page automatically refreshed every 10 minutes)

About coastal observations | Map of coastal stations | Coastal observations for VIC | Marine services | Other Formats
Station Details ID: 090180 Name: AIREYS INLET Lat: -38.46 Lon: 144.09 Height: 95.0 m
Data from the previous 72 hours. | See also: Recent months at Aireys Inlet
Date/Time
EDT
Temp

°C
Wind Pressure Rain
since 9am
mm
Weather Cloud Vis
km
Sea
Height
m
Swell
Dir
 
Speed
knots
Gust
knots
hPa Trend Height
m
Period
s
Dir
31/09:00pm 14.4 SW 13 20 - - 0.2 - - - - - - -
31/08:49pm 14.2 SW 15 27 - - 0.2 - - - - - - -
31/08:30pm 14.0 SW 13 20 - - 0.2 - - - - - - -
31/08:08pm 14.1 SW 16 27 - - 0.2 - - - - - - -
31/08:00pm 14.3 SSW 15 23 - - 0.2 - - - - - - -
31/07:30pm 14.6 SW 17 24 - - 0.2 - - - - - - -
31/07:00pm 14.5 SW 18 26 - - 0.0 - - - - - - -
31/06:36pm 14.4 SW 15 26 - - 0.0 - - - - - - -
31/06:30pm 14.1 SW 17 25 - - 0.0 - - - - - - -
31/06:00pm 14.2 SW 16 24 - - 0.0 - - - - - - -
31/05:34pm 15.2 SW 16 27 - - 0.0 - - - - - - -
31/05:30pm 15.6 SW 16 24 - - 0.0 - - - - - - -
31/05:00pm 15.2 SW 18 27 - - 0.0 - - - - - - -
31/04:35pm 15.3 SW 17 27 - - 0.0 - - - - - - -
31/04:30pm 15.6 SW 18 27 - - 0.0 - - - - - - -
31/04:00pm 15.8 SW 17 27 - - 0.0 - - - - - - -
31/03:30pm 16.4 SW 16 23 - - 0.0 - - - - - - -
31/03:14pm 16.7 SW 17 27 - - 0.0 - - - - - - -
31/03:00pm 16.6 SW 19 25 - - 0.0 - - - - - - -
31/02:30pm 17.3 SW 17 25 - - 0.0 - - - - - - -
31/02:00pm 17.6 SW 16 24 - - 0.0 - - - - - - -
31/01:30pm 17.9 SSW 15 23 - - 0.0 - - - - - - -
31/01:00pm 17.8 SSW 13 20 - - 0.0 - - - - - - -
31/12:30pm 18.1 SSW 13 22 - - 0.0 - - - - - - -
31/12:00pm 17.9 SSW 13 21 - - 0.0 - - - - - - -
31/11:30am 17.3 SSW 12 19 - - 0.0 - - - - - - -
31/11:00am 17.1 SSW 15 22 - - 0.0 - - - - - - -
31/10:30am 16.8 SSW 13 19 - - 0.0 - - - - - - -
31/10:00am 17.7 SSW 14 21 - - 0.0 - - - - - - -
31/09:30am 16.5 SSW 15 21 - - 0.0 - - - - - - -
31/09:00am 16.4 SSW 16 24 - - 0.0 - - - - - - -
31/08:30am 16.3 S 16 23 - - 0.0 - - - - - - -
31/08:03am 15.2 SSW 15 26 - - 0.0 - - - - - - -
31/08:00am 15.3 SSW 15 24 - - 0.0 - - - - - - -
31/07:30am 15.1 SSW 16 23 - - 0.0 - - - - - - -
31/07:00am 15.0 SSW 16 24 - - 0.0 - - - - - - -
31/06:30am 14.8 SSW 15 23 - - 0.0 - - - - - - -
31/06:00am 15.1 SW 17 25 - - 0.0 - - - - - - -
31/05:30am 15.0 SW 17 25 - - 0.0 - - - - - - -
31/05:13am 15.1 SSW 16 26 - - 0.0 - - - - - - -
31/05:00am 15.2 SW 18 25 - - 0.0 - - - - - - -
31/04:39am 15.3 SSW 15 25 - - 0.0 - - - - - - -
31/04:30am 15.4 SW 17 25 - - 0.0 - - - - - - -
31/04:00am 15.4 SSW 16 23 - - 0.0 - - - - - - -
31/03:30am 15.4 SSW 14 25 - - 0.0 - - - - - - -
31/03:00am 15.4 SSW 14 25 - - 0.0 - - - - - - -
31/02:30am 15.4 SSW 13 20 - - 0.0 - - - - - - -
31/02:00am 15.3 SSW 14 22 - - 0.0 - - - - - - -
31/01:30am 15.4 SSW 13 20 - - 0.0 - - - - - - -
31/01:00am 15.5 SSW 13 18 - - 0.0 - - - - - - -
31/12:30am 15.5 SSW 13 19 - - 0.0 - - - - - - -
31/12:00am 15.4 SW 9 14 - - 0.0 - - - - - - -
 
Date/Time
EDT
Temp

°C
Wind Pressure Rain
since 9am
mm
Weather Cloud Vis
km
Sea
Height
m
Swell
Dir
 
Speed
knots
Gust
knots
hPa Trend Height
m
Period
s
Dir
30/11:30pm 14.8 WSW 10 14 - - 0.0 - - - - - - -
30/11:00pm 14.4 WSW 10 13 - - 0.0 - - - - - - -
30/10:30pm 14.7 WSW 10 14 - - 0.0 - - - - - - -
30/10:00pm 15.0 SW 9 12 - - 0.0 - - - - - - -
30/09:30pm 15.2 SSW 12 19 - - 0.0 - - - - - - -
30/09:00pm 15.2 SSW 10 16 - - 0.0 - - - - - - -
30/08:30pm 15.8 SSW 10 15 - - 0.0 - - - - - - -
30/08:00pm 16.0 SSW 12 18 - - 0.0 - - - - - - -
30/07:30pm 17.7 SSW 10 16 - - 0.0 - - - - - - -
30/07:00pm 17.9 SSW 9 13 - - 0.0 - - - - - - -
30/06:30pm 18.7 S 9 12 - - 0.0 - - - - - - -
30/06:00pm 18.8 S 9 13 - - 0.0 - - - - - - -
30/05:30pm 19.4 S 8 12 - - 0.0 - - - - - - -
30/05:00pm 19.2 S 8 13 - - 0.0 - - - - - - -
30/04:30pm 19.1 S 7 12 - - 0.0 - - - - - - -
30/04:00pm 19.1 S 8 11 - - 0.0 - - - - - - -
30/03:30pm 20.0 S 8 12 - - 0.0 - - - - - - -
30/03:00pm 19.1 S 7 10 - - 0.0 - - - - - - -
30/02:30pm 19.4 S 7 12 - - 0.0 - - - - - - -
30/02:00pm 20.0 S 7 11 - - 0.0 - - - - - - -
30/01:30pm 19.8 SSE 7 11 - - 0.0 - - - - - - -
30/01:00pm 19.5 SSE 7 11 - - 0.0 - - - - - - -
30/12:30pm 20.4 S 7 11 - - 0.0 - - - - - - -
30/12:00pm 19.0 S 6 10 - - 0.0 - - - - - - -
30/11:30am 18.3 S 7 11 - - 0.0 - - - - - - -
30/11:00am 19.6 S 7 10 - - 0.0 - - - - - - -
30/10:30am 18.6 S 6 10 - - 0.0 - - - - - - -
30/10:00am 18.1 SSE 6 9 - - 0.0 - - - - - - -
30/09:30am 17.1 SE 6 10 - - 0.0 - - - - - - -
30/09:00am 16.9 SE 6 10 - - 0.0 - - - - - - -
30/08:30am 16.5 SE 7 12 - - 0.0 - - - - - - -
30/08:00am 16.1 SE 7 12 - - 0.0 - - - - - - -
30/07:30am 15.4 SE 7 12 - - 0.0 - - - - - - -
30/07:00am 15.3 SE 8 15 - - 0.0 - - - - - - -
30/06:30am 15.4 SSE 9 15 - - 0.0 - - - - - - -
30/06:00am 15.1 S 11 15 - - 0.0 - - - - - - -
30/05:30am 14.7 S 9 14 - - 0.0 - - - - - - -
30/05:00am 14.4 S 9 13 - - 0.0 - - - - - - -
30/04:30am 14.4 S 9 13 - - 0.0 - - - - - - -
30/04:00am 14.5 S 9 14 - - 0.0 - - - - - - -
30/03:30am 14.5 S 9 13 - - 0.0 - - - - - - -
30/03:00am 14.5 S 7 12 - - 0.0 - - - - - - -
30/02:30am 14.8 SSE 8 12 - - 0.0 - - - - - - -
30/02:00am 14.7 SSE 8 11 - - 0.0 - - - - - - -
30/01:30am 14.5 SSE 6 10 - - 0.0 - - - - - - -
30/01:00am 14.5 SSE 6 9 - - 0.0 - - - - - - -
30/12:30am 14.9 SSE 7 10 - - 0.0 - - - - - - -
30/12:00am 15.3 SSE 7 12 - - 0.0 - - - - - - -
 
Date/Time
EDT
Temp

°C
Wind Pressure Rain
since 9am
mm
Weather Cloud Vis
km
Sea
Height
m
Swell
Dir
 
Speed
knots
Gust
knots
hPa Trend Height
m
Period
s
Dir
29/11:30pm 15.5 SSE 7 11 - - 0.0 - - - - - - -
29/11:00pm 15.7 ESE 6 9 - - 0.0 - - - - - - -
29/10:30pm 15.6 SE 7 12 - - 0.0 - - - - - - -
29/10:00pm 15.6 SE 6 9 - - 0.0 - - - - - - -
29/09:30pm 15.7 SE 7 11 - - 0.0 - - - - - - -
29/09:00pm 15.7 SE 7 14 - - 0.0 - - - - - - -
29/08:30pm 15.7 SE 6 11 - - 0.0 - - - - - - -
29/08:00pm 15.9 SSE 9 15 - - 0.0 - - - - - - -
29/07:30pm 16.4 SSE 9 15 - - 0.0 - - - - - - -
29/07:00pm 17.4 SSE 9 14 - - 0.0 - - - - - - -
29/06:30pm 17.5 SSE 8 14 - - 0.0 - - - - - - -
29/06:00pm 17.8 SSE 10 15 - - 0.0 - - - - - - -
29/05:30pm 19.3 SSE 10 16 - - 0.0 - - - - - - -
29/05:00pm 18.8 SSE 11 19 - - 0.0 - - - - - - -
29/04:30pm 19.3 SSE 11 17 - - 0.0 - - - - - - -
29/04:00pm 19.9 SSE 11 16 - - 0.0 - - - - - - -
29/03:30pm 19.8 SSE 9 15 - - 0.0 - - - - - - -
29/03:00pm 20.0 SSE 9 16 - - 0.0 - - - - - - -
29/02:30pm 19.7 SSE 8 16 - - 0.0 - - - - - - -
29/02:00pm 20.5 SSE 8 17 - - 0.0 - - - - - - -
29/01:30pm 19.8 SSE 8 13 - - 0.0 - - - - - - -
29/01:00pm 19.8 SE 9 16 - - 0.0 - - - - - - -
29/12:30pm 17.8 SE 8 13 - - 0.0 - - - - - - -
29/12:00pm 18.2 SE 7 13 - - 0.0 - - - - - - -
29/11:30am 17.9 SE 10 15 - - 0.0 - - - - - - -
29/11:00am 17.7 SE 7 13 - - 0.0 - - - - - - -
29/10:30am 18.3 SE 7 13 - - 0.0 - - - - - - -
29/10:00am 16.6 ESE 9 15 - - 0.0 - - - - - - -
29/09:30am 17.1 ESE 8 12 - - 0.0 - - - - - - -
29/09:00am 17.0 SE 9 14 - - 0.0 - - - - - - -
29/08:30am 16.0 SE 7 14 - - 0.0 - - - - - - -
29/08:00am 16.4 ESE 9 15 - - 0.0 - - - - - - -
29/07:30am 16.3 ESE 9 17 - - 0.0 - - - - - - -
29/07:00am 15.8 ESE 8 13 - - 0.0 - - - - - - -
29/06:30am 15.4 SE 8 13 - - 0.0 - - - - - - -
29/06:00am 15.2 ESE 7 11 - - 0.0 - - - - - - -
29/05:30am 15.3 ESE 7 13 - - 0.0 - - - - - - -
29/05:00am 15.2 ESE 3 6 - - 0.0 - - - - - - -
29/04:30am 15.4 E 6 13 - - 0.0 - - - - - - -
29/04:00am 15.7 ESE 6 12 - - 0.0 - - - - - - -
29/03:30am 15.8 ESE 7 12 - - 0.0 - - - - - - -
29/03:00am 15.9 ESE 8 12 - - 0.0 - - - - - - -
29/02:30am 15.7 E 7 11 - - 0.0 - - - - - - -
29/02:00am 15.7 ESE 8 14 - - 0.0 - - - - - - -
29/01:30am 15.8 SE 8 14 - - 0.0 - - - - - - -
29/01:00am 15.9 SE 9 15 - - 0.0 - - - - - - -
29/12:30am 15.7 SE 9 16 - - 0.0 - - - - - - -
29/12:00am 15.5 SE 9 14 - - 0.0 - - - - - - -
 
Date/Time
EDT
Temp

°C
Wind Pressure Rain
since 9am
mm
Weather Cloud Vis
km
Sea
Height
m
Swell
Dir
 
Speed
knots
Gust
knots
hPa Trend Height
m
Period
s
Dir
28/11:30pm 15.5 SE 9 16 - - 0.0 - - - - - - -
28/11:00pm 15.5 SE 9 18 - - 0.0 - - - - - - -
28/10:30pm 15.4 SE 10 16 - - 0.0 - - - - - - -
28/10:00pm 15.5 SSE 10 17 - - 0.0 - - - - - - -
28/09:30pm 15.6 SSE 11 17 - - 0.0 - - - - - - -

Other Formats:

Comma delimited format used in spreadsheet applications
http://www.bom.gov.au/fwo/IDV60701/IDV60701.94846.axf

JavaScript Object Notation format (JSON) in row-major order
http://www.bom.gov.au/fwo/IDV60701/IDV60701.94846.json